sensor_id;sensor_type;location;lat;lon;timestamp;temperature;humidity
40848;DHT22;26570;50.962;5.340;2024-01-15T00:01:26;2.80;99.90
40848;DHT22;26570;50.962;5.340;2024-01-15T00:04:29;2.70;99.90
40848;DHT22;26570;50.962;5.340;2024-01-15T00:07:51;2.80;99.90
40848;DHT22;26570;50.962;5.340;2024-01-15T00:11:11;2.80;99.90
40848;DHT22;26570;50.962;5.340;2024-01-15T00:14:19;2.70;99.90
40848;DHT22;26570;50.962;5.340;2024-01-15T00:17:11;2.60;99.90
40848;DHT22;26570;50.962;5.340;2024-01-15T00:20:02;2.40;99.90
40848;DHT22;26570;50.962;5.340;2024-01-15T00:22:57;2.40;99.90
40848;DHT22;26570;50.962;5.340;2024-01-15T00:25:51;2.50;99.90
40848;DHT22;26570;50.962;5.340;2024-01-15T00:28:47;2.70;99.90
40848;DHT22;26570;50.962;5.340;2024-01-15T00:32:01;2.60;99.90
40848;DHT22;26570;50.962;5.340;2024-01-15T00:35:24;2.50;99.90
40848;DHT22;26570;50.962;5.340;2024-01-15T00:38:54;2.50;99.90
40848;DHT22;26570;50.962;5.340;2024-01-15T00:41:44;2.40;99.90
40848;DHT22;26570;50.962;5.340;2024-01-15T00:44:32;2.30;99.90
40848;DHT22;26570;50.962;5.340;2024-01-15T00:47:27;2.40;99.90
40848;DHT22;26570;50.962;5.340;2024-01-15T00:50:20;2.40;99.90
40848;DHT22;26570;50.962;5.340;2024-01-15T00:53:25;2.40;99.90
40848;DHT22;26570;50.962;5.340;2024-01-15T00:56:44;2.50;99.90
40848;DHT22;26570;50.962;5.340;2024-01-15T01:07:04;2.20;99.90
40848;DHT22;26570;50.962;5.340;2024-01-15T01:10:30;2.20;99.90
40848;DHT22;26570;50.962;5.340;2024-01-15T01:16:52;2.30;99.90
40848;DHT22;26570;50.962;5.340;2024-01-15T01:20:30;2.30;99.90
40848;DHT22;26570;50.962;5.340;2024-01-15T01:23:43;2.30;99.90
40848;DHT22;26570;50.962;5.340;2024-01-15T01:26:35;2.50;99.90
40848;DHT22;26570;50.962;5.340;2024-01-15T01:30:15;2.40;99.90
40848;DHT22;26570;50.962;5.340;2024-01-15T01:33:33;2.40;99.90
40848;DHT22;26570;50.962;5.340;2024-01-15T01:36:24;2.40;99.90
40848;DHT22;26570;50.962;5.340;2024-01-15T01:39:45;2.40;99.90
40848;DHT22;26570;50.962;5.340;2024-01-15T01:42:47;2.30;99.90
40848;DHT22;26570;50.962;5.340;2024-01-15T01:45:33;2.50;99.90
40848;DHT22;26570;50.962;5.340;2024-01-15T01:48:24;2.50;99.90
40848;DHT22;26570;50.962;5.340;2024-01-15T01:54:38;2.40;99.90
40848;DHT22;26570;50.962;5.340;2024-01-15T01:57:28;2.40;99.90
40848;DHT22;26570;50.962;5.340;2024-01-15T02:00:22;2.60;99.90
40848;DHT22;26570;50.962;5.340;2024-01-15T02:03:32;2.70;99.90
40848;DHT22;26570;50.962;5.340;2024-01-15T02:06:56;2.80;99.90
40848;DHT22;26570;50.962;5.340;2024-01-15T02:10:13;2.80;99.90
40848;DHT22;26570;50.962;5.340;2024-01-15T02:12:58;2.70;99.90
40848;DHT22;26570;50.962;5.340;2024-01-15T02:15:49;2.70;99.90
40848;DHT22;26570;50.962;5.340;2024-01-15T02:18:46;2.80;99.90
40848;DHT22;26570;50.962;5.340;2024-01-15T02:21:32;2.80;99.90
40848;DHT22;26570;50.962;5.340;2024-01-15T02:24:32;2.60;99.90
40848;DHT22;26570;50.962;5.340;2024-01-15T02:27:17;2.50;99.90
40848;DHT22;26570;50.962;5.340;2024-01-15T02:30:30;2.50;99.90
40848;DHT22;26570;50.962;5.340;2024-01-15T02:33:36;2.60;99.90
40848;DHT22;26570;50.962;5.340;2024-01-15T02:36:26;2.80;99.90
40848;DHT22;26570;50.962;5.340;2024-01-15T02:39:11;2.70;99.90
40848;DHT22;26570;50.962;5.340;2024-01-15T02:42:11;2.60;99.90
40848;DHT22;26570;50.962;5.340;2024-01-15T02:45:06;2.50;99.90
40848;DHT22;26570;50.962;5.340;2024-01-15T02:51:02;2.50;99.90
40848;DHT22;26570;50.962;5.340;2024-01-15T02:54:33;2.50;99.90
40848;DHT22;26570;50.962;5.340;2024-01-15T02:57:19;2.60;99.90
40848;DHT22;26570;50.962;5.340;2024-01-15T03:00:32;2.60;99.90
40848;DHT22;26570;50.962;5.340;2024-01-15T03:03:23;2.70;99.90
40848;DHT22;26570;50.962;5.340;2024-01-15T03:06:40;2.70;99.90
40848;DHT22;26570;50.962;5.340;2024-01-15T03:09:31;2.60;99.90
40848;DHT22;26570;50.962;5.340;2024-01-15T03:12:20;2.80;99.90
40848;DHT22;26570;50.962;5.340;2024-01-15T03:15:12;2.70;99.90
40848;DHT22;26570;50.962;5.340;2024-01-15T03:18:35;2.70;99.90
40848;DHT22;26570;50.962;5.340;2024-01-15T03:21:44;2.70;99.90
40848;DHT22;26570;50.962;5.340;2024-01-15T03:24:39;2.90;99.90
40848;DHT22;26570;50.962;5.340;2024-01-15T03:28:07;2.80;99.90
40848;DHT22;26570;50.962;5.340;2024-01-15T03:30:55;2.60;99.90
40848;DHT22;26570;50.962;5.340;2024-01-15T03:34:05;2.70;99.90
40848;DHT22;26570;50.962;5.340;2024-01-15T03:37:22;2.90;99.90
40848;DHT22;26570;50.962;5.340;2024-01-15T03:40:08;2.90;99.90
40848;DHT22;26570;50.962;5.340;2024-01-15T03:43:30;2.80;99.90
40848;DHT22;26570;50.962;5.340;2024-01-15T03:46:46;3.00;99.90
40848;DHT22;26570;50.962;5.340;2024-01-15T03:49:33;3.00;99.90
40848;DHT22;26570;50.962;5.340;2024-01-15T03:52:24;2.90;99.90
40848;DHT22;26570;50.962;5.340;2024-01-15T03:55:20;2.90;99.90
40848;DHT22;26570;50.962;5.340;2024-01-15T03:58:31;3.00;99.90
40848;DHT22;26570;50.962;5.340;2024-01-15T04:01:26;2.90;99.90
40848;DHT22;26570;50.962;5.340;2024-01-15T04:04:17;2.80;99.90
40848;DHT22;26570;50.962;5.340;2024-01-15T04:07:40;2.90;99.90
40848;DHT22;26570;50.962;5.340;2024-01-15T04:10:35;2.90;99.90
40848;DHT22;26570;50.962;5.340;2024-01-15T04:13:57;3.00;99.90
40848;DHT22;26570;50.962;5.340;2024-01-15T04:17:10;2.90;99.90
40848;DHT22;26570;50.962;5.340;2024-01-15T04:20:41;2.90;99.90
40848;DHT22;26570;50.962;5.340;2024-01-15T04:23:49;2.90;99.90
40848;DHT22;26570;50.962;5.340;2024-01-15T04:26:59;2.90;99.90
40848;DHT22;26570;50.962;5.340;2024-01-15T04:29:51;2.90;99.90
40848;DHT22;26570;50.962;5.340;2024-01-15T04:32:43;2.80;99.90
40848;DHT22;26570;50.962;5.340;2024-01-15T04:36:02;2.80;99.90
40848;DHT22;26570;50.962;5.340;2024-01-15T04:39:19;2.80;99.90
40848;DHT22;26570;50.962;5.340;2024-01-15T04:42:07;2.80;99.90
40848;DHT22;26570;50.962;5.340;2024-01-15T04:44:57;2.90;99.90
40848;DHT22;26570;50.962;5.340;2024-01-15T04:48:06;2.90;99.90
40848;DHT22;26570;50.962;5.340;2024-01-15T04:50:58;3.00;99.90
40848;DHT22;26570;50.962;5.340;2024-01-15T04:53:44;2.90;99.90
40848;DHT22;26570;50.962;5.340;2024-01-15T04:56:31;2.90;99.90
40848;DHT22;26570;50.962;5.340;2024-01-15T04:59:21;3.00;99.90
40848;DHT22;26570;50.962;5.340;2024-01-15T05:02:07;3.10;99.90
40848;DHT22;26570;50.962;5.340;2024-01-15T05:04:52;2.90;99.90
40848;DHT22;26570;50.962;5.340;2024-01-15T05:07:37;2.70;99.90
40848;DHT22;26570;50.962;5.340;2024-01-15T05:10:53;2.70;99.90
40848;DHT22;26570;50.962;5.340;2024-01-15T05:13:41;2.60;99.90
40848;DHT22;26570;50.962;5.340;2024-01-15T05:16:26;2.60;99.90
40848;DHT22;26570;50.962;5.340;2024-01-15T05:19:18;2.70;99.90
40848;DHT22;26570;50.962;5.340;2024-01-15T05:22:43;2.70;99.90
40848;DHT22;26570;50.962;5.340;2024-01-15T05:25:51;2.60;99.90
40848;DHT22;26570;50.962;5.340;2024-01-15T05:28:41;2.60;99.90
40848;DHT22;26570;50.962;5.340;2024-01-15T05:32:16;2.70;99.90
40848;DHT22;26570;50.962;5.340;2024-01-15T05:35:13;2.60;99.90
40848;DHT22;26570;50.962;5.340;2024-01-15T05:38:27;2.40;99.90
40848;DHT22;26570;50.962;5.340;2024-01-15T05:41:18;2.40;99.90
40848;DHT22;26570;50.962;5.340;2024-01-15T05:44:03;2.50;99.90
40848;DHT22;26570;50.962;5.340;2024-01-15T05:47:05;2.50;99.90
40848;DHT22;26570;50.962;5.340;2024-01-15T05:50:31;2.40;99.90
40848;DHT22;26570;50.962;5.340;2024-01-15T05:53:17;2.50;99.90
40848;DHT22;26570;50.962;5.340;2024-01-15T05:56:03;2.50;99.90
40848;DHT22;26570;50.962;5.340;2024-01-15T05:58:55;2.60;99.90
40848;DHT22;26570;50.962;5.340;2024-01-15T06:01:49;2.40;99.90
40848;DHT22;26570;50.962;5.340;2024-01-15T06:04:38;2.40;99.90
40848;DHT22;26570;50.962;5.340;2024-01-15T06:07:39;2.30;99.90
40848;DHT22;26570;50.962;5.340;2024-01-15T06:10:33;2.50;99.90
40848;DHT22;26570;50.962;5.340;2024-01-15T06:13:19;2.50;99.90
40848;DHT22;26570;50.962;5.340;2024-01-15T06:16:14;2.40;99.90
40848;DHT22;26570;50.962;5.340;2024-01-15T06:19:06;2.20;99.90
40848;DHT22;26570;50.962;5.340;2024-01-15T06:21:59;2.30;99.90
40848;DHT22;26570;50.962;5.340;2024-01-15T06:24:55;2.30;99.90
40848;DHT22;26570;50.962;5.340;2024-01-15T06:27:43;2.30;99.90
40848;DHT22;26570;50.962;5.340;2024-01-15T06:30:36;2.30;99.90
40848;DHT22;26570;50.962;5.340;2024-01-15T06:33:28;2.20;99.90
40848;DHT22;26570;50.962;5.340;2024-01-15T06:36:18;2.30;99.90
40848;DHT22;26570;50.962;5.340;2024-01-15T06:39:32;2.10;99.90
40848;DHT22;26570;50.962;5.340;2024-01-15T06:42:29;2.30;99.90
40848;DHT22;26570;50.962;5.340;2024-01-15T06:45:25;2.40;99.90
40848;DHT22;26570;50.962;5.340;2024-01-15T06:48:58;2.30;99.90
40848;DHT22;26570;50.962;5.340;2024-01-15T06:51:50;2.30;99.90
40848;DHT22;26570;50.962;5.340;2024-01-15T06:54:35;2.10;99.90
40848;DHT22;26570;50.962;5.340;2024-01-15T06:57:26;2.00;99.90
40848;DHT22;26570;50.962;5.340;2024-01-15T07:00:12;2.00;99.90
40848;DHT22;26570;50.962;5.340;2024-01-15T07:03:36;2.00;99.90
40848;DHT22;26570;50.962;5.340;2024-01-15T07:06:22;2.10;99.90
40848;DHT22;26570;50.962;5.340;2024-01-15T07:09:21;2.20;99.90
40848;DHT22;26570;50.962;5.340;2024-01-15T07:12:51;2.20;99.90
40848;DHT22;26570;50.962;5.340;2024-01-15T07:15:39;2.50;99.90
40848;DHT22;26570;50.962;5.340;2024-01-15T07:18:24;2.30;99.90
40848;DHT22;26570;50.962;5.340;2024-01-15T07:21:09;2.30;99.90
40848;DHT22;26570;50.962;5.340;2024-01-15T07:24:17;2.20;99.90
40848;DHT22;26570;50.962;5.340;2024-01-15T07:27:06;2.30;99.90
40848;DHT22;26570;50.962;5.340;2024-01-15T07:29:51;2.30;99.90
40848;DHT22;26570;50.962;5.340;2024-01-15T07:32:36;2.50;99.90
40848;DHT22;26570;50.962;5.340;2024-01-15T07:35:22;1.50;99.90
40848;DHT22;26570;50.962;5.340;2024-01-15T07:38:29;2.40;99.90
40848;DHT22;26570;50.962;5.340;2024-01-15T07:41:14;2.30;99.90
40848;DHT22;26570;50.962;5.340;2024-01-15T07:44:00;2.50;99.90
40848;DHT22;26570;50.962;5.340;2024-01-15T07:46:47;2.40;99.90
40848;DHT22;26570;50.962;5.340;2024-01-15T07:49:55;2.50;99.90
40848;DHT22;26570;50.962;5.340;2024-01-15T07:57:16;2.70;99.90
40848;DHT22;26570;50.962;5.340;2024-01-15T08:00:27;2.50;99.90
40848;DHT22;26570;50.962;5.340;2024-01-15T08:03:12;2.70;99.90
40848;DHT22;26570;50.962;5.340;2024-01-15T08:06:22;2.80;99.90
40848;DHT22;26570;50.962;5.340;2024-01-15T08:09:31;2.80;99.90
40848;DHT22;26570;50.962;5.340;2024-01-15T08:12:23;2.60;99.90
40848;DHT22;26570;50.962;5.340;2024-01-15T08:15:20;2.70;99.90
40848;DHT22;26570;50.962;5.340;2024-01-15T08:18:08;2.80;99.90
40848;DHT22;26570;50.962;5.340;2024-01-15T08:21:17;2.60;99.90
40848;DHT22;26570;50.962;5.340;2024-01-15T08:24:05;2.60;99.90
40848;DHT22;26570;50.962;5.340;2024-01-15T08:27:13;2.60;99.90
40848;DHT22;26570;50.962;5.340;2024-01-15T08:29:58;2.70;99.90
40848;DHT22;26570;50.962;5.340;2024-01-15T08:32:43;2.80;99.90
40848;DHT22;26570;50.962;5.340;2024-01-15T08:35:28;2.80;99.90
40848;DHT22;26570;50.962;5.340;2024-01-15T08:38:44;2.80;99.90
40848;DHT22;26570;50.962;5.340;2024-01-15T08:41:30;2.60;99.90
40848;DHT22;26570;50.962;5.340;2024-01-15T08:44:16;2.70;99.90
40848;DHT22;26570;50.962;5.340;2024-01-15T08:47:26;2.70;99.90
40848;DHT22;26570;50.962;5.340;2024-01-15T08:50:42;2.70;99.90
40848;DHT22;26570;50.962;5.340;2024-01-15T08:53:27;2.70;99.90
40848;DHT22;26570;50.962;5.340;2024-01-15T08:56:53;2.60;99.90
40848;DHT22;26570;50.962;5.340;2024-01-15T09:00:03;2.50;99.90
40848;DHT22;26570;50.962;5.340;2024-01-15T09:02:53;2.50;99.90
40848;DHT22;26570;50.962;5.340;2024-01-15T09:06:00;2.30;99.90
40848;DHT22;26570;50.962;5.340;2024-01-15T09:09:10;2.50;99.90
40848;DHT22;26570;50.962;5.340;2024-01-15T09:12:03;2.50;99.90
40848;DHT22;26570;50.962;5.340;2024-01-15T09:15:14;2.80;99.90
40848;DHT22;26570;50.962;5.340;2024-01-15T09:18:02;2.70;99.90
40848;DHT22;26570;50.962;5.340;2024-01-15T09:21:12;2.80;99.90
40848;DHT22;26570;50.962;5.340;2024-01-15T09:24:20;2.90;99.90
40848;DHT22;26570;50.962;5.340;2024-01-15T09:27:15;2.80;99.90
40848;DHT22;26570;50.962;5.340;2024-01-15T09:30:01;2.90;99.90
40848;DHT22;26570;50.962;5.340;2024-01-15T09:32:45;2.60;99.90
40848;DHT22;26570;50.962;5.340;2024-01-15T09:35:33;2.60;99.90
40848;DHT22;26570;50.962;5.340;2024-01-15T09:38:19;2.70;99.90
40848;DHT22;26570;50.962;5.340;2024-01-15T09:41:04;2.70;99.90
40848;DHT22;26570;50.962;5.340;2024-01-15T09:43:52;2.50;99.90
40848;DHT22;26570;50.962;5.340;2024-01-15T09:47:01;2.70;99.90
40848;DHT22;26570;50.962;5.340;2024-01-15T09:50:09;2.80;99.90
40848;DHT22;26570;50.962;5.340;2024-01-15T09:53:19;2.90;99.90
40848;DHT22;26570;50.962;5.340;2024-01-15T09:56:05;2.80;99.90
40848;DHT22;26570;50.962;5.340;2024-01-15T09:58:59;2.90;99.90
40848;DHT22;26570;50.962;5.340;2024-01-15T10:01:50;3.00;99.90
40848;DHT22;26570;50.962;5.340;2024-01-15T10:04:43;3.10;99.90
40848;DHT22;26570;50.962;5.340;2024-01-15T10:08:09;3.30;99.90
40848;DHT22;26570;50.962;5.340;2024-01-15T10:14:06;3.40;99.90
40848;DHT22;26570;50.962;5.340;2024-01-15T10:17:30;3.50;99.90
40848;DHT22;26570;50.962;5.340;2024-01-15T10:20:18;3.30;99.90
40848;DHT22;26570;50.962;5.340;2024-01-15T10:23:09;3.30;99.90
40848;DHT22;26570;50.962;5.340;2024-01-15T10:26:25;3.20;99.90
40848;DHT22;26570;50.962;5.340;2024-01-15T10:29:15;3.20;99.90
40848;DHT22;26570;50.962;5.340;2024-01-15T10:32:05;3.20;99.90
40848;DHT22;26570;50.962;5.340;2024-01-15T10:35:14;3.30;99.90
40848;DHT22;26570;50.962;5.340;2024-01-15T10:38:08;3.30;99.90
40848;DHT22;26570;50.962;5.340;2024-01-15T10:40:57;3.40;99.90
40848;DHT22;26570;50.962;5.340;2024-01-15T10:43:42;3.50;99.90
40848;DHT22;26570;50.962;5.340;2024-01-15T10:46:50;3.50;99.90
40848;DHT22;26570;50.962;5.340;2024-01-15T10:50:01;3.60;99.90
40848;DHT22;26570;50.962;5.340;2024-01-15T10:52:46;3.60;99.90
40848;DHT22;26570;50.962;5.340;2024-01-15T10:55:37;3.80;99.90
40848;DHT22;26570;50.962;5.340;2024-01-15T10:58:29;3.70;99.90
40848;DHT22;26570;50.962;5.340;2024-01-15T11:01:44;3.80;99.90
40848;DHT22;26570;50.962;5.340;2024-01-15T11:04:40;3.80;99.90
40848;DHT22;26570;50.962;5.340;2024-01-15T11:07:33;3.80;99.90
40848;DHT22;26570;50.962;5.340;2024-01-15T11:10:47;4.00;99.90
40848;DHT22;26570;50.962;5.340;2024-01-15T11:16:24;4.30;99.90
40848;DHT22;26570;50.962;5.340;2024-01-15T11:19:24;4.30;99.90
40848;DHT22;26570;50.962;5.340;2024-01-15T11:25:23;4.30;99.90
40848;DHT22;26570;50.962;5.340;2024-01-15T11:28:47;4.20;99.90
40848;DHT22;26570;50.962;5.340;2024-01-15T11:40:39;3.60;99.90
40848;DHT22;26570;50.962;5.340;2024-01-15T11:43:49;3.00;99.90
40848;DHT22;26570;50.962;5.340;2024-01-15T11:47:01;2.70;99.90
40848;DHT22;26570;50.962;5.340;2024-01-15T11:50:02;2.70;99.90
40848;DHT22;26570;50.962;5.340;2024-01-15T11:53:43;2.80;99.90
40848;DHT22;26570;50.962;5.340;2024-01-15T11:56:52;2.70;99.90
40848;DHT22;26570;50.962;5.340;2024-01-15T12:00:01;2.90;99.90
40848;DHT22;26570;50.962;5.340;2024-01-15T12:02:49;2.80;99.90
40848;DHT22;26570;50.962;5.340;2024-01-15T12:05:58;2.90;99.90
40848;DHT22;26570;50.962;5.340;2024-01-15T12:08:45;2.80;99.90
40848;DHT22;26570;50.962;5.340;2024-01-15T12:12:07;2.80;99.90
40848;DHT22;26570;50.962;5.340;2024-01-15T12:15:19;3.10;99.90
40848;DHT22;26570;50.962;5.340;2024-01-15T12:18:05;3.10;99.90
40848;DHT22;26570;50.962;5.340;2024-01-15T12:20:50;2.90;99.90
40848;DHT22;26570;50.962;5.340;2024-01-15T12:23:39;2.90;99.90
40848;DHT22;26570;50.962;5.340;2024-01-15T12:26:47;2.80;99.90
40848;DHT22;26570;50.962;5.340;2024-01-15T12:29:54;2.80;99.90
40848;DHT22;26570;50.962;5.340;2024-01-15T12:32:43;2.60;99.90
40848;DHT22;26570;50.962;5.340;2024-01-15T12:35:53;2.40;99.90
40848;DHT22;26570;50.962;5.340;2024-01-15T12:38:39;2.40;99.90
40848;DHT22;26570;50.962;5.340;2024-01-15T12:41:27;2.50;99.90
40848;DHT22;26570;50.962;5.340;2024-01-15T12:44:15;2.50;99.90
40848;DHT22;26570;50.962;5.340;2024-01-15T12:47:09;2.60;99.90
40848;DHT22;26570;50.962;5.340;2024-01-15T12:50:24;2.60;99.90
40848;DHT22;26570;50.962;5.340;2024-01-15T12:53:15;2.80;99.90
40848;DHT22;26570;50.962;5.340;2024-01-15T12:56:02;3.00;99.90
40848;DHT22;26570;50.962;5.340;2024-01-15T12:58:47;3.00;99.90
40848;DHT22;26570;50.962;5.340;2024-01-15T13:01:32;3.00;99.90
40848;DHT22;26570;50.962;5.340;2024-01-15T13:04:24;3.00;99.90
40848;DHT22;26570;50.962;5.340;2024-01-15T13:07:10;3.00;99.90
40848;DHT22;26570;50.962;5.340;2024-01-15T13:10:17;3.00;99.90
40848;DHT22;26570;50.962;5.340;2024-01-15T13:13:02;2.80;99.90
40848;DHT22;26570;50.962;5.340;2024-01-15T13:15:51;3.00;99.90
40848;DHT22;26570;50.962;5.340;2024-01-15T13:18:36;2.90;99.90
40848;DHT22;26570;50.962;5.340;2024-01-15T13:21:24;2.90;99.90
40848;DHT22;26570;50.962;5.340;2024-01-15T13:24:36;2.80;99.90
40848;DHT22;26570;50.962;5.340;2024-01-15T13:27:20;2.80;99.90
40848;DHT22;26570;50.962;5.340;2024-01-15T13:30:30;2.90;99.90
40848;DHT22;26570;50.962;5.340;2024-01-15T13:33:38;3.00;99.90
40848;DHT22;26570;50.962;5.340;2024-01-15T13:36:24;3.10;99.90
40848;DHT22;26570;50.962;5.340;2024-01-15T13:39:09;3.10;99.90
40848;DHT22;26570;50.962;5.340;2024-01-15T13:41:57;3.10;99.90
40848;DHT22;26570;50.962;5.340;2024-01-15T13:44:44;3.20;99.90
40848;DHT22;26570;50.962;5.340;2024-01-15T13:47:32;3.30;99.90
40848;DHT22;26570;50.962;5.340;2024-01-15T13:50:48;3.10;99.90
40848;DHT22;26570;50.962;5.340;2024-01-15T13:53:57;3.20;99.90
40848;DHT22;26570;50.962;5.340;2024-01-15T13:56:52;3.30;99.90
40848;DHT22;26570;50.962;5.340;2024-01-15T14:00:01;3.20;99.90
40848;DHT22;26570;50.962;5.340;2024-01-15T14:03:17;3.20;99.90
40848;DHT22;26570;50.962;5.340;2024-01-15T14:06:08;3.20;99.90
40848;DHT22;26570;50.962;5.340;2024-01-15T14:09:15;3.10;99.90
40848;DHT22;26570;50.962;5.340;2024-01-15T14:12:30;3.10;99.90
40848;DHT22;26570;50.962;5.340;2024-01-15T14:15:22;2.90;99.90
40848;DHT22;26570;50.962;5.340;2024-01-15T14:18:38;2.80;99.90
40848;DHT22;26570;50.962;5.340;2024-01-15T14:21:50;2.90;99.90
40848;DHT22;26570;50.962;5.340;2024-01-15T14:24:35;2.90;99.90
40848;DHT22;26570;50.962;5.340;2024-01-15T14:27:20;3.00;99.90
40848;DHT22;26570;50.962;5.340;2024-01-15T14:30:09;2.90;99.90
40848;DHT22;26570;50.962;5.340;2024-01-15T14:33:24;2.70;99.90
40848;DHT22;26570;50.962;5.340;2024-01-15T14:36:31;2.70;99.90
40848;DHT22;26570;50.962;5.340;2024-01-15T14:39:17;2.70;99.90
40848;DHT22;26570;50.962;5.340;2024-01-15T14:42:08;2.60;99.90
40848;DHT22;26570;50.962;5.340;2024-01-15T14:45:06;2.50;99.90
40848;DHT22;26570;50.962;5.340;2024-01-15T14:47:56;2.50;99.90
40848;DHT22;26570;50.962;5.340;2024-01-15T14:55:42;2.40;99.90
40848;DHT22;26570;50.962;5.340;2024-01-15T15:02:15;2.40;99.90
40848;DHT22;26570;50.962;5.340;2024-01-15T15:05:23;2.40;99.90
40848;DHT22;26570;50.962;5.340;2024-01-15T15:08:08;2.50;99.90
40848;DHT22;26570;50.962;5.340;2024-01-15T15:10:53;2.60;99.90
40848;DHT22;26570;50.962;5.340;2024-01-15T15:13:41;2.60;99.90
40848;DHT22;26570;50.962;5.340;2024-01-15T15:16:49;2.70;99.90
40848;DHT22;26570;50.962;5.340;2024-01-15T15:19:35;2.90;99.90
40848;DHT22;26570;50.962;5.340;2024-01-15T15:22:21;2.90;99.90
40848;DHT22;26570;50.962;5.340;2024-01-15T15:25:09;2.80;99.90
40848;DHT22;26570;50.962;5.340;2024-01-15T15:27:54;2.70;99.90
40848;DHT22;26570;50.962;5.340;2024-01-15T15:31:02;2.70;99.90
40848;DHT22;26570;50.962;5.340;2024-01-15T15:33:47;2.60;99.90
40848;DHT22;26570;50.962;5.340;2024-01-15T15:36:58;2.50;99.90
40848;DHT22;26570;50.962;5.340;2024-01-15T15:40:06;2.50;99.90
40848;DHT22;26570;50.962;5.340;2024-01-15T15:42:53;2.40;99.90
40848;DHT22;26570;50.962;5.340;2024-01-15T15:45:40;2.60;99.90
40848;DHT22;26570;50.962;5.340;2024-01-15T15:48:25;2.70;99.90
40848;DHT22;26570;50.962;5.340;2024-01-15T15:51:10;2.70;99.90
40848;DHT22;26570;50.962;5.340;2024-01-15T15:54:20;2.70;99.90
40848;DHT22;26570;50.962;5.340;2024-01-15T15:57:06;2.50;99.90
40848;DHT22;26570;50.962;5.340;2024-01-15T16:00:13;2.50;99.90
40848;DHT22;26570;50.962;5.340;2024-01-15T16:02:58;2.40;99.90
40848;DHT22;26570;50.962;5.340;2024-01-15T16:05:44;2.40;99.90
40848;DHT22;26570;50.962;5.340;2024-01-15T16:08:51;2.40;99.90
40848;DHT22;26570;50.962;5.340;2024-01-15T16:12:04;2.40;99.90
40848;DHT22;26570;50.962;5.340;2024-01-15T16:15:22;2.40;99.90
40848;DHT22;26570;50.962;5.340;2024-01-15T16:18:08;2.30;99.90
40848;DHT22;26570;50.962;5.340;2024-01-15T16:20:53;2.30;99.90
40848;DHT22;26570;50.962;5.340;2024-01-15T16:23:39;2.20;99.90
40848;DHT22;26570;50.962;5.340;2024-01-15T16:26:24;2.40;99.90
40848;DHT22;26570;50.962;5.340;2024-01-15T16:29:46;2.50;99.90
40848;DHT22;26570;50.962;5.340;2024-01-15T16:32:56;2.50;99.90
40848;DHT22;26570;50.962;5.340;2024-01-15T16:35:42;2.40;99.90
40848;DHT22;26570;50.962;5.340;2024-01-15T16:38:27;2.20;99.90
40848;DHT22;26570;50.962;5.340;2024-01-15T16:41:13;2.10;99.90
40848;DHT22;26570;50.962;5.340;2024-01-15T16:43:58;2.10;99.90
40848;DHT22;26570;50.962;5.340;2024-01-15T16:46:43;2.10;99.90
40848;DHT22;26570;50.962;5.340;2024-01-15T16:49:28;2.00;99.90
40848;DHT22;26570;50.962;5.340;2024-01-15T16:52:16;2.00;99.90
40848;DHT22;26570;50.962;5.340;2024-01-15T16:55:05;2.00;99.90
40848;DHT22;26570;50.962;5.340;2024-01-15T16:57:50;2.00;99.90
40848;DHT22;26570;50.962;5.340;2024-01-15T17:00:35;2.00;99.90
40848;DHT22;26570;50.962;5.340;2024-01-15T17:03:21;1.90;99.90
40848;DHT22;26570;50.962;5.340;2024-01-15T17:06:47;2.00;99.90
40848;DHT22;26570;50.962;5.340;2024-01-15T17:09:41;2.00;99.90
40848;DHT22;26570;50.962;5.340;2024-01-15T17:12:26;1.90;99.90
40848;DHT22;26570;50.962;5.340;2024-01-15T17:15:39;1.80;99.90
40848;DHT22;26570;50.962;5.340;2024-01-15T17:18:25;1.80;99.90
40848;DHT22;26570;50.962;5.340;2024-01-15T17:21:10;1.70;99.90
40848;DHT22;26570;50.962;5.340;2024-01-15T17:24:17;1.70;99.90
40848;DHT22;26570;50.962;5.340;2024-01-15T17:27:25;1.80;99.90
40848;DHT22;26570;50.962;5.340;2024-01-15T17:30:41;1.70;99.90
40848;DHT22;26570;50.962;5.340;2024-01-15T17:33:51;1.70;99.90
40848;DHT22;26570;50.962;5.340;2024-01-15T17:36:58;1.80;99.90
40848;DHT22;26570;50.962;5.340;2024-01-15T17:40:09;1.70;99.90
40848;DHT22;26570;50.962;5.340;2024-01-15T17:43:24;1.70;99.90
40848;DHT22;26570;50.962;5.340;2024-01-15T17:46:36;1.50;99.90
40848;DHT22;26570;50.962;5.340;2024-01-15T17:49:24;1.60;99.90
40848;DHT22;26570;50.962;5.340;2024-01-15T17:52:09;1.60;99.90
40848;DHT22;26570;50.962;5.340;2024-01-15T17:55:17;1.60;99.90
40848;DHT22;26570;50.962;5.340;2024-01-15T17:58:02;1.60;99.90
40848;DHT22;26570;50.962;5.340;2024-01-15T18:01:25;1.70;99.90
40848;DHT22;26570;50.962;5.340;2024-01-15T18:04:38;1.80;99.90
40848;DHT22;26570;50.962;5.340;2024-01-15T18:07:23;1.70;99.90
40848;DHT22;26570;50.962;5.340;2024-01-15T18:10:31;1.70;99.90
40848;DHT22;26570;50.962;5.340;2024-01-15T18:13:16;1.70;99.90
40848;DHT22;26570;50.962;5.340;2024-01-15T18:16:02;1.70;99.90
40848;DHT22;26570;50.962;5.340;2024-01-15T18:18:52;1.50;99.90
40848;DHT22;26570;50.962;5.340;2024-01-15T18:21:44;1.60;99.90
40848;DHT22;26570;50.962;5.340;2024-01-15T18:24:29;1.50;99.90
40848;DHT22;26570;50.962;5.340;2024-01-15T18:27:17;1.40;99.90
40848;DHT22;26570;50.962;5.340;2024-01-15T18:30:03;1.50;99.90
40848;DHT22;26570;50.962;5.340;2024-01-15T18:32:48;1.70;99.90
40848;DHT22;26570;50.962;5.340;2024-01-15T18:35:33;1.60;99.90
40848;DHT22;26570;50.962;5.340;2024-01-15T18:38:42;1.60;99.90
40848;DHT22;26570;50.962;5.340;2024-01-15T18:41:58;1.80;99.90
40848;DHT22;26570;50.962;5.340;2024-01-15T18:44:43;1.80;99.90
40848;DHT22;26570;50.962;5.340;2024-01-15T18:47:31;1.70;99.90
40848;DHT22;26570;50.962;5.340;2024-01-15T18:50:26;1.70;99.90
40848;DHT22;26570;50.962;5.340;2024-01-15T18:53:43;1.40;99.90
40848;DHT22;26570;50.962;5.340;2024-01-15T18:56:39;1.30;99.90
40848;DHT22;26570;50.962;5.340;2024-01-15T18:59:31;1.30;99.90
40848;DHT22;26570;50.962;5.340;2024-01-15T19:02:20;1.50;99.90
40848;DHT22;26570;50.962;5.340;2024-01-15T19:05:11;1.50;99.90
40848;DHT22;26570;50.962;5.340;2024-01-15T19:08:20;1.40;99.90
40848;DHT22;26570;50.962;5.340;2024-01-15T19:11:28;1.70;99.90
40848;DHT22;26570;50.962;5.340;2024-01-15T19:14:25;1.60;99.90
40848;DHT22;26570;50.962;5.340;2024-01-15T19:17:32;1.60;99.90
40848;DHT22;26570;50.962;5.340;2024-01-15T19:20:47;1.80;99.90
40848;DHT22;26570;50.962;5.340;2024-01-15T19:23:33;2.00;99.90
40848;DHT22;26570;50.962;5.340;2024-01-15T19:26:21;2.00;99.90
40848;DHT22;26570;50.962;5.340;2024-01-15T19:29:30;2.10;99.90
40848;DHT22;26570;50.962;5.340;2024-01-15T19:32:17;2.00;99.90
40848;DHT22;26570;50.962;5.340;2024-01-15T19:35:02;2.00;99.90
40848;DHT22;26570;50.962;5.340;2024-01-15T19:38:06;2.10;99.90
40848;DHT22;26570;50.962;5.340;2024-01-15T19:40:56;2.10;99.90
40848;DHT22;26570;50.962;5.340;2024-01-15T19:43:46;2.00;99.90
40848;DHT22;26570;50.962;5.340;2024-01-15T19:46:31;2.20;99.90
40848;DHT22;26570;50.962;5.340;2024-01-15T19:49:41;2.20;99.90
40848;DHT22;26570;50.962;5.340;2024-01-15T19:52:30;2.20;99.90